sensor_id;sensor_type;location;lat;lon;timestamp;P1;durP1;ratioP1;P2;durP2;ratioP2
41885;SDS011;27567;43.084;25.616;2023-05-07T00:02:31;24.20;;;15.90;;
41885;SDS011;27567;43.084;25.616;2023-05-07T00:05:16;29.42;;;15.30;;
41885;SDS011;27567;43.084;25.616;2023-05-07T00:08:03;22.38;;;14.60;;
41885;SDS011;27567;43.084;25.616;2023-05-07T00:10:47;21.05;;;13.63;;
41885;SDS011;27567;43.084;25.616;2023-05-07T00:13:31;19.67;;;12.45;;
41885;SDS011;27567;43.084;25.616;2023-05-07T00:16:18;17.50;;;12.40;;
41885;SDS011;27567;43.084;25.616;2023-05-07T00:19:03;18.55;;;11.98;;
41885;SDS011;27567;43.084;25.616;2023-05-07T00:21:47;19.80;;;11.90;;
41885;SDS011;27567;43.084;25.616;2023-05-07T00:24:31;20.10;;;11.82;;
41885;SDS011;27567;43.084;25.616;2023-05-07T00:27:15;18.38;;;10.63;;
41885;SDS011;27567;43.084;25.616;2023-05-07T00:29:59;17.50;;;11.88;;
41885;SDS011;27567;43.084;25.616;2023-05-07T00:32:43;18.70;;;12.32;;
41885;SDS011;27567;43.084;25.616;2023-05-07T00:35:29;17.50;;;11.93;;
41885;SDS011;27567;43.084;25.616;2023-05-07T00:38:13;17.88;;;11.00;;
41885;SDS011;27567;43.084;25.616;2023-05-07T00:40:58;18.40;;;11.98;;
41885;SDS011;27567;43.084;25.616;2023-05-07T00:43:42;16.50;;;11.82;;
41885;SDS011;27567;43.084;25.616;2023-05-07T00:46:26;22.50;;;13.27;;
41885;SDS011;27567;43.084;25.616;2023-05-07T00:49:10;19.70;;;11.52;;
41885;SDS011;27567;43.084;25.616;2023-05-07T00:51:54;20.10;;;11.98;;
41885;SDS011;27567;43.084;25.616;2023-05-07T00:54:38;16.20;;;10.88;;
41885;SDS011;27567;43.084;25.616;2023-05-07T00:57:24;17.95;;;10.63;;
41885;SDS011;27567;43.084;25.616;2023-05-07T01:00:09;14.57;;;10.13;;
41885;SDS011;27567;43.084;25.616;2023-05-07T01:02:53;18.55;;;11.35;;
41885;SDS011;27567;43.084;25.616;2023-05-07T01:05:38;21.13;;;12.05;;
41885;SDS011;27567;43.084;25.616;2023-05-07T01:08:22;21.73;;;14.52;;
41885;SDS011;27567;43.084;25.616;2023-05-07T01:11:08;19.63;;;11.73;;
41885;SDS011;27567;43.084;25.616;2023-05-07T01:13:53;17.35;;;11.15;;
41885;SDS011;27567;43.084;25.616;2023-05-07T01:16:37;16.17;;;10.73;;
41885;SDS011;27567;43.084;25.616;2023-05-07T01:19:21;19.88;;;12.55;;
41885;SDS011;27567;43.084;25.616;2023-05-07T01:22:09;21.52;;;11.63;;
41885;SDS011;27567;43.084;25.616;2023-05-07T01:24:58;17.60;;;12.25;;
41885;SDS011;27567;43.084;25.616;2023-05-07T01:27:45;23.80;;;14.13;;
41885;SDS011;27567;43.084;25.616;2023-05-07T01:30:29;21.45;;;13.18;;
41885;SDS011;27567;43.084;25.616;2023-05-07T01:33:14;17.92;;;11.52;;
41885;SDS011;27567;43.084;25.616;2023-05-07T01:36:00;17.48;;;12.27;;
41885;SDS011;27567;43.084;25.616;2023-05-07T01:38:47;19.88;;;12.25;;
41885;SDS011;27567;43.084;25.616;2023-05-07T01:41:32;16.55;;;11.77;;
41885;SDS011;27567;43.084;25.616;2023-05-07T01:44:16;21.70;;;14.15;;
41885;SDS011;27567;43.084;25.616;2023-05-07T01:47:02;41.75;;;15.05;;
41885;SDS011;27567;43.084;25.616;2023-05-07T01:49:47;19.25;;;13.52;;
41885;SDS011;27567;43.084;25.616;2023-05-07T01:52:31;20.45;;;14.65;;
41885;SDS011;27567;43.084;25.616;2023-05-07T01:55:15;23.80;;;16.38;;
41885;SDS011;27567;43.084;25.616;2023-05-07T01:57:59;25.70;;;17.60;;
41885;SDS011;27567;43.084;25.616;2023-05-07T02:00:43;31.35;;;19.90;;
41885;SDS011;27567;43.084;25.616;2023-05-07T02:03:27;32.72;;;20.75;;
41885;SDS011;27567;43.084;25.616;2023-05-07T02:06:11;32.80;;;19.52;;
41885;SDS011;27567;43.084;25.616;2023-05-07T02:08:55;25.67;;;16.05;;
41885;SDS011;27567;43.084;25.616;2023-05-07T02:11:39;21.17;;;14.98;;
41885;SDS011;27567;43.084;25.616;2023-05-07T02:14:23;27.55;;;16.27;;
41885;SDS011;27567;43.084;25.616;2023-05-07T02:17:07;30.35;;;15.20;;
41885;SDS011;27567;43.084;25.616;2023-05-07T02:19:51;123.28;;;21.90;;
41885;SDS011;27567;43.084;25.616;2023-05-07T02:22:35;157.48;;;20.40;;
41885;SDS011;27567;43.084;25.616;2023-05-07T02:25:18;191.23;;;22.08;;
41885;SDS011;27567;43.084;25.616;2023-05-07T02:28:02;289.92;;;26.63;;
41885;SDS011;27567;43.084;25.616;2023-05-07T02:30:46;362.45;;;30.15;;
41885;SDS011;27567;43.084;25.616;2023-05-07T02:33:30;248.88;;;27.55;;
41885;SDS011;27567;43.084;25.616;2023-05-07T02:36:15;343.30;;;31.33;;
41885;SDS011;27567;43.084;25.616;2023-05-07T02:38:59;428.17;;;41.53;;
41885;SDS011;27567;43.084;25.616;2023-05-07T02:41:42;414.75;;;60.35;;
41885;SDS011;27567;43.084;25.616;2023-05-07T02:44:26;216.48;;;55.15;;
41885;SDS011;27567;43.084;25.616;2023-05-07T02:47:15;297.00;;;57.35;;
41885;SDS011;27567;43.084;25.616;2023-05-07T02:49:59;420.30;;;70.85;;
41885;SDS011;27567;43.084;25.616;2023-05-07T02:52:43;239.00;;;53.40;;
41885;SDS011;27567;43.084;25.616;2023-05-07T02:55:27;217.38;;;49.10;;
41885;SDS011;27567;43.084;25.616;2023-05-07T02:58:11;218.30;;;46.15;;
41885;SDS011;27567;43.084;25.616;2023-05-07T03:00:55;424.75;;;64.82;;
41885;SDS011;27567;43.084;25.616;2023-05-07T03:03:40;93.65;;;39.05;;
41885;SDS011;27567;43.084;25.616;2023-05-07T03:06:24;79.88;;;38.90;;
41885;SDS011;27567;43.084;25.616;2023-05-07T03:09:08;94.47;;;38.78;;
41885;SDS011;27567;43.084;25.616;2023-05-07T03:11:52;72.15;;;36.67;;
41885;SDS011;27567;43.084;25.616;2023-05-07T03:14:36;62.15;;;36.90;;
41885;SDS011;27567;43.084;25.616;2023-05-07T03:17:20;62.50;;;35.28;;
41885;SDS011;27567;43.084;25.616;2023-05-07T03:20:05;57.38;;;34.15;;
41885;SDS011;27567;43.084;25.616;2023-05-07T03:22:49;62.58;;;34.40;;
41885;SDS011;27567;43.084;25.616;2023-05-07T03:25:34;57.08;;;33.40;;
41885;SDS011;27567;43.084;25.616;2023-05-07T03:28:18;63.17;;;34.25;;
41885;SDS011;27567;43.084;25.616;2023-05-07T03:31:02;61.30;;;31.90;;
41885;SDS011;27567;43.084;25.616;2023-05-07T03:33:52;62.88;;;35.42;;
41885;SDS011;27567;43.084;25.616;2023-05-07T03:36:37;63.80;;;36.63;;
41885;SDS011;27567;43.084;25.616;2023-05-07T03:39:21;64.90;;;34.95;;
41885;SDS011;27567;43.084;25.616;2023-05-07T03:42:05;63.28;;;35.65;;
41885;SDS011;27567;43.084;25.616;2023-05-07T03:44:49;47.38;;;29.00;;
41885;SDS011;27567;43.084;25.616;2023-05-07T03:47:33;44.03;;;26.25;;
41885;SDS011;27567;43.084;25.616;2023-05-07T03:50:17;49.88;;;27.27;;
41885;SDS011;27567;43.084;25.616;2023-05-07T03:53:01;42.80;;;26.05;;
41885;SDS011;27567;43.084;25.616;2023-05-07T03:55:45;35.50;;;21.10;;
41885;SDS011;27567;43.084;25.616;2023-05-07T03:58:29;34.40;;;20.50;;
41885;SDS011;27567;43.084;25.616;2023-05-07T04:01:13;35.58;;;20.45;;
41885;SDS011;27567;43.084;25.616;2023-05-07T04:03:57;33.67;;;19.13;;
41885;SDS011;27567;43.084;25.616;2023-05-07T04:06:41;29.38;;;17.42;;
41885;SDS011;27567;43.084;25.616;2023-05-07T04:09:25;32.45;;;19.05;;
41885;SDS011;27567;43.084;25.616;2023-05-07T04:12:09;28.73;;;16.67;;
41885;SDS011;27567;43.084;25.616;2023-05-07T04:14:53;31.70;;;17.63;;
41885;SDS011;27567;43.084;25.616;2023-05-07T04:17:37;31.80;;;17.65;;
41885;SDS011;27567;43.084;25.616;2023-05-07T04:20:21;24.50;;;15.52;;
41885;SDS011;27567;43.084;25.616;2023-05-07T04:23:05;24.17;;;14.82;;
41885;SDS011;27567;43.084;25.616;2023-05-07T04:25:49;21.45;;;12.60;;
41885;SDS011;27567;43.084;25.616;2023-05-07T04:28:34;21.02;;;11.27;;
41885;SDS011;27567;43.084;25.616;2023-05-07T04:31:18;21.63;;;9.60;;
41885;SDS011;27567;43.084;25.616;2023-05-07T04:34:02;13.45;;;8.05;;
41885;SDS011;27567;43.084;25.616;2023-05-07T04:36:46;14.07;;;8.43;;
41885;SDS011;27567;43.084;25.616;2023-05-07T04:39:32;20.90;;;9.50;;
41885;SDS011;27567;43.084;25.616;2023-05-07T04:42:16;15.77;;;8.73;;
41885;SDS011;27567;43.084;25.616;2023-05-07T04:45:02;17.38;;;8.82;;
41885;SDS011;27567;43.084;25.616;2023-05-07T04:47:46;15.02;;;7.90;;
41885;SDS011;27567;43.084;25.616;2023-05-07T04:50:30;18.58;;;8.27;;
41885;SDS011;27567;43.084;25.616;2023-05-07T04:53:15;17.13;;;7.18;;
41885;SDS011;27567;43.084;25.616;2023-05-07T04:55:59;12.13;;;6.57;;
41885;SDS011;27567;43.084;25.616;2023-05-07T04:58:43;14.77;;;7.40;;
41885;SDS011;27567;43.084;25.616;2023-05-07T05:01:27;12.75;;;6.90;;
41885;SDS011;27567;43.084;25.616;2023-05-07T05:04:11;12.70;;;5.70;;
41885;SDS011;27567;43.084;25.616;2023-05-07T05:06:56;16.67;;;6.25;;
41885;SDS011;27567;43.084;25.616;2023-05-07T05:09:40;12.43;;;6.90;;
41885;SDS011;27567;43.084;25.616;2023-05-07T05:12:24;14.70;;;6.18;;
41885;SDS011;27567;43.084;25.616;2023-05-07T05:15:09;13.23;;;6.40;;
41885;SDS011;27567;43.084;25.616;2023-05-07T05:17:54;13.43;;;6.57;;
41885;SDS011;27567;43.084;25.616;2023-05-07T05:20:38;18.50;;;7.82;;
41885;SDS011;27567;43.084;25.616;2023-05-07T05:23:23;13.65;;;8.68;;
41885;SDS011;27567;43.084;25.616;2023-05-07T05:26:07;15.35;;;8.85;;
41885;SDS011;27567;43.084;25.616;2023-05-07T05:28:51;16.30;;;8.90;;
41885;SDS011;27567;43.084;25.616;2023-05-07T05:31:35;28.00;;;13.80;;
41885;SDS011;27567;43.084;25.616;2023-05-07T05:34:19;22.48;;;13.77;;
41885;SDS011;27567;43.084;25.616;2023-05-07T05:37:03;26.13;;;13.05;;
41885;SDS011;27567;43.084;25.616;2023-05-07T05:39:47;21.77;;;12.05;;
41885;SDS011;27567;43.084;25.616;2023-05-07T05:42:31;20.23;;;9.57;;
41885;SDS011;27567;43.084;25.616;2023-05-07T05:45:15;20.27;;;10.70;;
41885;SDS011;27567;43.084;25.616;2023-05-07T05:48:00;15.38;;;9.82;;
41885;SDS011;27567;43.084;25.616;2023-05-07T05:50:44;21.13;;;9.75;;
41885;SDS011;27567;43.084;25.616;2023-05-07T05:53:27;16.10;;;8.73;;
41885;SDS011;27567;43.084;25.616;2023-05-07T05:56:11;17.60;;;9.65;;
41885;SDS011;27567;43.084;25.616;2023-05-07T05:58:55;14.82;;;9.57;;
41885;SDS011;27567;43.084;25.616;2023-05-07T06:01:39;18.70;;;10.43;;
41885;SDS011;27567;43.084;25.616;2023-05-07T06:04:24;21.63;;;15.05;;
41885;SDS011;27567;43.084;25.616;2023-05-07T06:07:08;27.95;;;15.48;;
41885;SDS011;27567;43.084;25.616;2023-05-07T06:09:52;18.33;;;11.13;;
41885;SDS011;27567;43.084;25.616;2023-05-07T06:12:36;19.20;;;9.57;;
41885;SDS011;27567;43.084;25.616;2023-05-07T06:15:21;17.80;;;7.65;;
41885;SDS011;27567;43.084;25.616;2023-05-07T06:18:18;15.80;;;8.40;;
41885;SDS011;27567;43.084;25.616;2023-05-07T06:21:02;12.75;;;7.15;;
41885;SDS011;27567;43.084;25.616;2023-05-07T06:23:49;14.38;;;6.22;;
41885;SDS011;27567;43.084;25.616;2023-05-07T06:26:35;17.13;;;8.10;;
41885;SDS011;27567;43.084;25.616;2023-05-07T06:29:19;12.98;;;6.97;;
41885;SDS011;27567;43.084;25.616;2023-05-07T06:32:07;14.20;;;7.60;;
41885;SDS011;27567;43.084;25.616;2023-05-07T06:34:52;14.95;;;8.23;;
41885;SDS011;27567;43.084;25.616;2023-05-07T06:37:36;13.00;;;8.80;;
41885;SDS011;27567;43.084;25.616;2023-05-07T06:40:21;13.43;;;9.60;;
41885;SDS011;27567;43.084;25.616;2023-05-07T06:43:09;8.30;;;5.10;;
41885;SDS011;27567;43.084;25.616;2023-05-07T06:45:53;6.65;;;4.47;;
41885;SDS011;27567;43.084;25.616;2023-05-07T06:48:37;10.88;;;5.07;;
41885;SDS011;27567;43.084;25.616;2023-05-07T06:51:24;12.10;;;6.72;;
41885;SDS011;27567;43.084;25.616;2023-05-07T06:54:09;13.00;;;7.82;;
41885;SDS011;27567;43.084;25.616;2023-05-07T06:56:55;6.97;;;3.85;;
41885;SDS011;27567;43.084;25.616;2023-05-07T06:59:39;9.32;;;3.13;;
41885;SDS011;27567;43.084;25.616;2023-05-07T07:02:24;8.38;;;4.35;;
41885;SDS011;27567;43.084;25.616;2023-05-07T07:05:08;9.90;;;4.55;;
41885;SDS011;27567;43.084;25.616;2023-05-07T07:07:56;4.88;;;2.50;;
41885;SDS011;27567;43.084;25.616;2023-05-07T07:10:40;11.00;;;3.38;;
41885;SDS011;27567;43.084;25.616;2023-05-07T07:13:24;4.22;;;2.05;;
41885;SDS011;27567;43.084;25.616;2023-05-07T07:16:08;9.23;;;2.58;;
41885;SDS011;27567;43.084;25.616;2023-05-07T07:18:55;5.07;;;2.20;;
41885;SDS011;27567;43.084;25.616;2023-05-07T07:21:39;3.78;;;2.50;;
41885;SDS011;27567;43.084;25.616;2023-05-07T07:24:23;3.40;;;2.28;;
41885;SDS011;27567;43.084;25.616;2023-05-07T07:27:07;6.35;;;2.58;;
41885;SDS011;27567;43.084;25.616;2023-05-07T07:29:51;10.77;;;2.20;;
41885;SDS011;27567;43.084;25.616;2023-05-07T07:32:36;9.48;;;2.38;;
41885;SDS011;27567;43.084;25.616;2023-05-07T07:35:20;4.53;;;2.03;;
41885;SDS011;27567;43.084;25.616;2023-05-07T07:38:05;3.35;;;1.83;;
41885;SDS011;27567;43.084;25.616;2023-05-07T07:40:49;6.13;;;2.10;;
41885;SDS011;27567;43.084;25.616;2023-05-07T07:43:34;3.35;;;1.73;;
41885;SDS011;27567;43.084;25.616;2023-05-07T07:46:19;5.10;;;2.67;;
41885;SDS011;27567;43.084;25.616;2023-05-07T07:49:02;6.38;;;1.65;;
41885;SDS011;27567;43.084;25.616;2023-05-07T07:51:46;9.35;;;2.05;;
41885;SDS011;27567;43.084;25.616;2023-05-07T07:54:31;2.38;;;1.58;;
41885;SDS011;27567;43.084;25.616;2023-05-07T07:57:15;5.22;;;1.67;;
41885;SDS011;27567;43.084;25.616;2023-05-07T07:59:59;4.55;;;2.03;;
41885;SDS011;27567;43.084;25.616;2023-05-07T08:02:44;3.33;;;1.65;;
41885;SDS011;27567;43.084;25.616;2023-05-07T08:05:29;6.43;;;1.77;;
41885;SDS011;27567;43.084;25.616;2023-05-07T08:08:13;4.63;;;1.65;;
41885;SDS011;27567;43.084;25.616;2023-05-07T08:10:57;3.90;;;1.42;;
41885;SDS011;27567;43.084;25.616;2023-05-07T08:13:41;4.15;;;1.33;;
41885;SDS011;27567;43.084;25.616;2023-05-07T08:16:25;3.85;;;1.30;;
41885;SDS011;27567;43.084;25.616;2023-05-07T08:19:09;3.67;;;1.23;;
41885;SDS011;27567;43.084;25.616;2023-05-07T08:21:53;4.03;;;1.20;;
41885;SDS011;27567;43.084;25.616;2023-05-07T08:24:38;3.90;;;1.20;;
41885;SDS011;27567;43.084;25.616;2023-05-07T08:27:22;5.63;;;2.25;;
41885;SDS011;27567;43.084;25.616;2023-05-07T08:30:07;2.13;;;1.05;;
41885;SDS011;27567;43.084;25.616;2023-05-07T08:32:54;5.25;;;1.42;;
41885;SDS011;27567;43.084;25.616;2023-05-07T08:35:38;2.78;;;1.20;;
41885;SDS011;27567;43.084;25.616;2023-05-07T08:38:22;4.75;;;1.10;;
41885;SDS011;27567;43.084;25.616;2023-05-07T08:41:06;2.90;;;1.10;;
41885;SDS011;27567;43.084;25.616;2023-05-07T08:43:54;3.95;;;1.05;;
41885;SDS011;27567;43.084;25.616;2023-05-07T08:46:41;1.75;;;1.00;;
41885;SDS011;27567;43.084;25.616;2023-05-07T08:49:30;2.22;;;1.20;;
41885;SDS011;27567;43.084;25.616;2023-05-07T08:52:14;2.42;;;1.10;;
41885;SDS011;27567;43.084;25.616;2023-05-07T08:54:59;4.65;;;1.02;;
41885;SDS011;27567;43.084;25.616;2023-05-07T08:57:46;4.47;;;1.20;;
41885;SDS011;27567;43.084;25.616;2023-05-07T09:00:31;4.50;;;1.02;;
41885;SDS011;27567;43.084;25.616;2023-05-07T09:03:16;2.17;;;1.10;;
41885;SDS011;27567;43.084;25.616;2023-05-07T09:06:00;6.80;;;1.67;;
41885;SDS011;27567;43.084;25.616;2023-05-07T09:08:48;5.53;;;1.38;;
41885;SDS011;27567;43.084;25.616;2023-05-07T09:11:34;4.40;;;1.10;;
41885;SDS011;27567;43.084;25.616;2023-05-07T09:14:18;4.20;;;1.42;;
41885;SDS011;27567;43.084;25.616;2023-05-07T09:17:05;4.95;;;1.60;;
41885;SDS011;27567;43.084;25.616;2023-05-07T09:19:49;6.88;;;1.40;;
41885;SDS011;27567;43.084;25.616;2023-05-07T09:22:36;1.77;;;1.10;;
41885;SDS011;27567;43.084;25.616;2023-05-07T09:25:31;4.43;;;1.15;;
41885;SDS011;27567;43.084;25.616;2023-05-07T09:28:16;3.67;;;1.50;;
41885;SDS011;27567;43.084;25.616;2023-05-07T09:31:00;6.43;;;1.60;;
41885;SDS011;27567;43.084;25.616;2023-05-07T09:33:45;7.53;;;1.73;;
41885;SDS011;27567;43.084;25.616;2023-05-07T09:36:29;2.97;;;1.20;;
41885;SDS011;27567;43.084;25.616;2023-05-07T09:39:15;3.90;;;1.42;;
41885;SDS011;27567;43.084;25.616;2023-05-07T09:42:00;7.53;;;1.60;;
41885;SDS011;27567;43.084;25.616;2023-05-07T09:44:45;7.32;;;1.60;;
41885;SDS011;27567;43.084;25.616;2023-05-07T09:47:31;3.83;;;1.20;;
41885;SDS011;27567;43.084;25.616;2023-05-07T09:50:19;7.55;;;1.80;;
41885;SDS011;27567;43.084;25.616;2023-05-07T09:53:11;2.15;;;1.38;;
41885;SDS011;27567;43.084;25.616;2023-05-07T09:55:58;3.83;;;1.70;;
41885;SDS011;27567;43.084;25.616;2023-05-07T09:58:43;5.75;;;1.58;;
41885;SDS011;27567;43.084;25.616;2023-05-07T10:01:30;5.43;;;1.20;;
41885;SDS011;27567;43.084;25.616;2023-05-07T10:04:15;8.40;;;1.13;;
41885;SDS011;27567;43.084;25.616;2023-05-07T10:07:00;5.22;;;1.45;;
41885;SDS011;27567;43.084;25.616;2023-05-07T10:09:47;2.67;;;1.58;;
41885;SDS011;27567;43.084;25.616;2023-05-07T10:12:32;5.15;;;1.38;;
41885;SDS011;27567;43.084;25.616;2023-05-07T10:15:22;2.92;;;1.40;;
41885;SDS011;27567;43.084;25.616;2023-05-07T10:18:08;2.70;;;1.40;;
41885;SDS011;27567;43.084;25.616;2023-05-07T10:20:53;3.17;;;1.75;;
41885;SDS011;27567;43.084;25.616;2023-05-07T10:23:44;3.72;;;1.50;;
41885;SDS011;27567;43.084;25.616;2023-05-07T10:26:30;4.80;;;1.90;;
41885;SDS011;27567;43.084;25.616;2023-05-07T10:29:39;3.15;;;1.33;;
41885;SDS011;27567;43.084;25.616;2023-05-07T10:35:26;1.75;;;1.33;;
41885;SDS011;27567;43.084;25.616;2023-05-07T10:38:15;2.45;;;1.40;;
41885;SDS011;27567;43.084;25.616;2023-05-07T10:41:00;4.60;;;1.33;;
41885;SDS011;27567;43.084;25.616;2023-05-07T10:43:45;2.10;;;1.40;;
41885;SDS011;27567;43.084;25.616;2023-05-07T10:46:29;2.10;;;1.50;;
41885;SDS011;27567;43.084;25.616;2023-05-07T10:49:14;3.67;;;1.60;;
41885;SDS011;27567;43.084;25.616;2023-05-07T10:52:19;2.70;;;1.40;;
41885;SDS011;27567;43.084;25.616;2023-05-07T11:01:05;2.03;;;1.38;;
41885;SDS011;27567;43.084;25.616;2023-05-07T11:04:31;1.95;;;1.52;;
41885;SDS011;27567;43.084;25.616;2023-05-07T11:15:33;3.70;;;1.65;;
41885;SDS011;27567;43.084;25.616;2023-05-07T11:18:18;6.20;;;1.60;;
41885;SDS011;27567;43.084;25.616;2023-05-07T11:21:03;2.40;;;1.40;;
41885;SDS011;27567;43.084;25.616;2023-05-07T11:26:45;3.55;;;1.35;;
41885;SDS011;27567;43.084;25.616;2023-05-07T11:29:33;2.60;;;1.70;;
41885;SDS011;27567;43.084;25.616;2023-05-07T11:32:31;3.28;;;1.80;;
41885;SDS011;27567;43.084;25.616;2023-05-07T11:35:15;4.70;;;1.95;;
41885;SDS011;27567;43.084;25.616;2023-05-07T11:38:00;3.50;;;1.60;;
41885;SDS011;27567;43.084;25.616;2023-05-07T11:40:49;2.38;;;1.67;;
41885;SDS011;27567;43.084;25.616;2023-05-07T11:43:54;2.30;;;1.45;;
41885;SDS011;27567;43.084;25.616;2023-05-07T11:46:42;4.53;;;1.50;;
41885;SDS011;27567;43.084;25.616;2023-05-07T11:49:28;3.13;;;1.50;;
41885;SDS011;27567;43.084;25.616;2023-05-07T11:52:13;5.95;;;2.08;;
41885;SDS011;27567;43.084;25.616;2023-05-07T11:54:58;2.83;;;1.33;;
41885;SDS011;27567;43.084;25.616;2023-05-07T11:57:44;4.68;;;1.48;;
41885;SDS011;27567;43.084;25.616;2023-05-07T12:00:28;2.13;;;1.50;;
41885;SDS011;27567;43.084;25.616;2023-05-07T12:03:12;2.25;;;1.30;;
41885;SDS011;27567;43.084;25.616;2023-05-07T12:05:56;3.70;;;1.98;;
41885;SDS011;27567;43.084;25.616;2023-05-07T12:08:40;2.03;;;1.42;;
41885;SDS011;27567;43.084;25.616;2023-05-07T12:11:25;2.25;;;1.25;;
41885;SDS011;27567;43.084;25.616;2023-05-07T12:14:10;8.82;;;1.65;;
41885;SDS011;27567;43.084;25.616;2023-05-07T12:16:54;2.67;;;1.50;;
41885;SDS011;27567;43.084;25.616;2023-05-07T12:19:39;4.90;;;1.40;;
41885;SDS011;27567;43.084;25.616;2023-05-07T12:22:57;3.60;;;1.60;;
41885;SDS011;27567;43.084;25.616;2023-05-07T12:25:41;7.18;;;1.60;;
41885;SDS011;27567;43.084;25.616;2023-05-07T12:28:36;7.75;;;1.63;;
41885;SDS011;27567;43.084;25.616;2023-05-07T12:31:21;2.95;;;1.42;;
41885;SDS011;27567;43.084;25.616;2023-05-07T12:34:05;2.42;;;1.60;;
41885;SDS011;27567;43.084;25.616;2023-05-07T12:36:49;2.80;;;1.55;;
41885;SDS011;27567;43.084;25.616;2023-05-07T12:39:33;3.55;;;1.35;;
41885;SDS011;27567;43.084;25.616;2023-05-07T12:42:20;7.15;;;2.03;;
41885;SDS011;27567;43.084;25.616;2023-05-07T12:45:14;2.50;;;1.40;;
41885;SDS011;27567;43.084;25.616;2023-05-07T12:48:01;1.77;;;1.50;;
41885;SDS011;27567;43.084;25.616;2023-05-07T12:50:49;3.13;;;1.50;;
41885;SDS011;27567;43.084;25.616;2023-05-07T12:53:34;2.92;;;1.60;;
41885;SDS011;27567;43.084;25.616;2023-05-07T12:56:26;2.28;;;1.40;;
41885;SDS011;27567;43.084;25.616;2023-05-07T12:59:10;2.53;;;1.50;;
41885;SDS011;27567;43.084;25.616;2023-05-07T13:01:54;3.00;;;2.00;;
41885;SDS011;27567;43.084;25.616;2023-05-07T13:04:38;2.58;;;1.42;;
41885;SDS011;27567;43.084;25.616;2023-05-07T13:07:24;2.83;;;1.27;;
41885;SDS011;27567;43.084;25.616;2023-05-07T13:10:09;2.08;;;1.20;;
41885;SDS011;27567;43.084;25.616;2023-05-07T13:12:54;2.97;;;1.40;;
41885;SDS011;27567;43.084;25.616;2023-05-07T13:15:38;5.50;;;1.70;;
41885;SDS011;27567;43.084;25.616;2023-05-07T13:18:23;1.83;;;1.40;;
41885;SDS011;27567;43.084;25.616;2023-05-07T13:21:08;1.77;;;1.30;;
41885;SDS011;27567;43.084;25.616;2023-05-07T13:23:53;3.67;;;2.80;;
41885;SDS011;27567;43.084;25.616;2023-05-07T13:26:37;3.58;;;1.40;;
41885;SDS011;27567;43.084;25.616;2023-05-07T13:29:21;2.88;;;1.77;;
41885;SDS011;27567;43.084;25.616;2023-05-07T13:32:12;3.20;;;2.25;;
41885;SDS011;27567;43.084;25.616;2023-05-07T13:34:56;3.47;;;1.45;;
41885;SDS011;27567;43.084;25.616;2023-05-07T13:37:40;1.63;;;1.42;;
41885;SDS011;27567;43.084;25.616;2023-05-07T13:40:24;2.25;;;1.50;;
41885;SDS011;27567;43.084;25.616;2023-05-07T13:43:09;3.33;;;1.98;;
41885;SDS011;27567;43.084;25.616;2023-05-07T13:45:53;5.22;;;1.38;;
41885;SDS011;27567;43.084;25.616;2023-05-07T13:48:37;6.43;;;1.90;;
41885;SDS011;27567;43.084;25.616;2023-05-07T13:51:22;3.35;;;1.73;;
41885;SDS011;27567;43.084;25.616;2023-05-07T13:54:07;1.50;;;1.40;;
41885;SDS011;27567;43.084;25.616;2023-05-07T13:56:51;2.20;;;1.55;;
41885;SDS011;27567;43.084;25.616;2023-05-07T13:59:35;1.98;;;1.50;;
41885;SDS011;27567;43.084;25.616;2023-05-07T14:02:19;3.88;;;1.48;;
41885;SDS011;27567;43.084;25.616;2023-05-07T14:05:03;3.22;;;1.40;;
41885;SDS011;27567;43.084;25.616;2023-05-07T14:07:47;3.70;;;1.80;;
41885;SDS011;27567;43.084;25.616;2023-05-07T14:10:32;3.13;;;1.48;;
41885;SDS011;27567;43.084;25.616;2023-05-07T14:13:18;1.85;;;1.50;;
41885;SDS011;27567;43.084;25.616;2023-05-07T14:16:03;2.47;;;1.40;;
41885;SDS011;27567;43.084;25.616;2023-05-07T14:18:47;4.28;;;2.00;;
41885;SDS011;27567;43.084;25.616;2023-05-07T14:21:31;4.78;;;1.52;;
41885;SDS011;27567;43.084;25.616;2023-05-07T14:24:16;3.78;;;1.63;;
41885;SDS011;27567;43.084;25.616;2023-05-07T14:27:00;2.55;;;1.60;;
41885;SDS011;27567;43.084;25.616;2023-05-07T14:29:44;2.15;;;1.42;;
41885;SDS011;27567;43.084;25.616;2023-05-07T14:32:29;5.28;;;1.50;;
41885;SDS011;27567;43.084;25.616;2023-05-07T14:35:16;4.70;;;1.42;;
41885;SDS011;27567;43.084;25.616;2023-05-07T14:38:00;3.72;;;1.70;;
41885;SDS011;27567;43.084;25.616;2023-05-07T14:40:44;3.67;;;2.10;;
41885;SDS011;27567;43.084;25.616;2023-05-07T14:43:29;5.35;;;1.90;;
41885;SDS011;27567;43.084;25.616;2023-05-07T14:46:12;5.88;;;1.77;;
41885;SDS011;27567;43.084;25.616;2023-05-07T14:48:57;5.15;;;2.42;;
41885;SDS011;27567;43.084;25.616;2023-05-07T14:51:41;7.68;;;1.70;;
41885;SDS011;27567;43.084;25.616;2023-05-07T14:54:25;3.17;;;1.60;;
41885;SDS011;27567;43.084;25.616;2023-05-07T14:57:10;2.78;;;1.45;;
41885;SDS011;27567;43.084;25.616;2023-05-07T14:59:57;4.07;;;1.50;;
41885;SDS011;27567;43.084;25.616;2023-05-07T15:02:41;2.83;;;1.75;;
41885;SDS011;27567;43.084;25.616;2023-05-07T15:05:25;10.80;;;1.67;;
41885;SDS011;27567;43.084;25.616;2023-05-07T15:08:09;2.88;;;1.77;;
41885;SDS011;27567;43.084;25.616;2023-05-07T15:10:53;3.92;;;1.90;;
41885;SDS011;27567;43.084;25.616;2023-05-07T15:13:38;2.72;;;1.65;;
41885;SDS011;27567;43.084;25.616;2023-05-07T15:16:23;2.78;;;1.70;;
41885;SDS011;27567;43.084;25.616;2023-05-07T15:19:07;3.55;;;1.60;;
41885;SDS011;27567;43.084;25.616;2023-05-07T15:21:52;2.65;;;1.23;;
41885;SDS011;27567;43.084;25.616;2023-05-07T15:24:36;3.92;;;1.70;;
41885;SDS011;27567;43.084;25.616;2023-05-07T15:27:20;4.18;;;1.55;;
41885;SDS011;27567;43.084;25.616;2023-05-07T15:30:04;3.20;;;2.15;;
41885;SDS011;27567;43.084;25.616;2023-05-07T15:32:49;2.88;;;1.90;;
41885;SDS011;27567;43.084;25.616;2023-05-07T15:35:34;2.17;;;1.63;;
41885;SDS011;27567;43.084;25.616;2023-05-07T15:38:18;4.68;;;1.52;;
41885;SDS011;27567;43.084;25.616;2023-05-07T15:41:02;3.67;;;1.60;;
41885;SDS011;27567;43.084;25.616;2023-05-07T15:43:47;1.77;;;1.30;;
41885;SDS011;27567;43.084;25.616;2023-05-07T15:46:33;2.15;;;1.40;;
41885;SDS011;27567;43.084;25.616;2023-05-07T15:49:17;3.65;;;1.30;;
41885;SDS011;27567;43.084;25.616;2023-05-07T15:52:01;3.80;;;1.60;;
41885;SDS011;27567;43.084;25.616;2023-05-07T15:54:45;2.85;;;1.48;;
41885;SDS011;27567;43.084;25.616;2023-05-07T15:57:30;3.63;;;1.30;;
41885;SDS011;27567;43.084;25.616;2023-05-07T16:00:15;3.97;;;1.65;;
41885;SDS011;27567;43.084;25.616;2023-05-07T16:02:59;3.30;;;1.55;;
41885;SDS011;27567;43.084;25.616;2023-05-07T16:05:43;2.35;;;1.50;;
41885;SDS011;27567;43.084;25.616;2023-05-07T16:08:28;3.20;;;1.70;;
41885;SDS011;27567;43.084;25.616;2023-05-07T16:11:12;4.72;;;1.63;;
41885;SDS011;27567;43.084;25.616;2023-05-07T16:13:56;3.53;;;1.50;;
41885;SDS011;27567;43.084;25.616;2023-05-07T16:16:42;3.75;;;1.70;;
41885;SDS011;27567;43.084;25.616;2023-05-07T16:19:26;11.57;;;2.08;;
41885;SDS011;27567;43.084;25.616;2023-05-07T16:22:10;3.97;;;1.77;;
41885;SDS011;27567;43.084;25.616;2023-05-07T16:24:54;3.42;;;2.03;;
41885;SDS011;27567;43.084;25.616;2023-05-07T16:27:37;3.63;;;1.88;;
41885;SDS011;27567;43.084;25.616;2023-05-07T16:30:21;4.47;;;1.58;;